Dimitrovgrad, Serbia
Current Conditions -  °F | °C
As of 2:00 AM on Saturday 25 Oct 2014 (Local Time) from LBSF Reporting Station
Light Rain Light Rain  
Wind Chill: 34°   Ceiling: 2700
Heat Index: 41°   Visibility: 6mi
Dew Point: 34°   Wind: 11mph
Humidity: 76%   Direction: 20°NNE
Pressure: 29.97"   Gusts: NA
Location:  43.01°N, 22.78°E
Report Text: LBSF 250000Z 02005MPS 350V050 9999 -RA BKN027 OVC042 05/01 Q1015 NOSIG
Loading
Personal Weather Stations






























Interactive Weather Map
Tropical Storm Tracking
New forecast layout! Learn more

10-Day Weather Forecast

Advertisements
Track Severe Weather on mobile